Time;durP1;ratioP1;P1;durP2;ratioP2;P2;SDS_P1;SDS_P2;PMS_P1;PMS_P2;Temp;Humidity;BMP_temperature;BMP_pressure;BME280_temperature;BME280_humidity;BME280_pressure;Samples;Min_cycle;Max_cycle;Signal;HPM_P1;HPM_P2
2023/06/16 00:00:43;;;;;;;4.90;4.50;;;21.90;57.30;;;;;;5000740;28;20221;-75
2023/06/16 00:03:09;;;;;;;7.10;4.60;;;21.90;57.30;;;;;;5007037;28;21401;-74
2023/06/16 00:05:35;;;;;;;7.77;4.83;;;21.90;57.50;;;;;;5007376;28;21053;-75
2023/06/16 00:08:03;;;;;;;8.10;4.80;;;21.80;57.50;;;;;;5006608;28;20459;-74
2023/06/16 00:10:29;;;;;;;4.63;4.23;;;21.90;57.50;;;;;;5002166;28;20710;-75
2023/06/16 00:12:55;;;;;;;5.10;4.60;;;21.80;57.50;;;;;;5005636;28;21375;-75
2023/06/16 00:15:21;;;;;;;4.90;4.50;;;21.70;57.70;;;;;;5000018;28;20559;-75
2023/06/16 00:17:49;;;;;;;8.70;5.10;;;21.60;57.80;;;;;;5001684;28;20719;-74
2023/06/16 00:20:20;;;;;;;5.67;4.97;;;21.60;57.80;;;;;;5003870;28;20510;-75
2023/06/16 00:22:47;;;;;;;5.10;4.70;;;21.70;57.90;;;;;;4991216;28;20467;-72
2023/06/16 00:25:15;;;;;;;5.83;5.10;;;21.60;58.00;;;;;;5006241;28;21032;-75
2023/06/16 00:27:41;;;;;;;4.87;4.53;;;21.60;58.00;;;;;;4991508;28;20844;-75
2023/06/16 00:30:07;;;;;;;5.70;4.67;;;21.50;58.10;;;;;;4989577;28;20449;-75
2023/06/16 00:32:33;;;;;;;5.80;5.10;;;21.40;58.70;;;;;;5006826;28;20304;-75
2023/06/16 00:34:59;;;;;;;5.67;5.10;;;21.30;58.30;;;;;;5008247;28;20531;-75
2023/06/16 00:37:24;;;;;;;5.60;5.00;;;21.30;58.40;;;;;;4983403;28;20221;-75
2023/06/16 00:39:50;;;;;;;5.47;5.00;;;21.30;58.60;;;;;;4989445;28;20213;-75
2023/06/16 00:42:15;;;;;;;12.63;5.40;;;21.30;58.60;;;;;;4996976;28;20609;-75
2023/06/16 00:44:41;;;;;;;5.57;5.00;;;21.30;58.80;;;;;;4992190;28;20296;-75
2023/06/16 00:47:07;;;;;;;6.40;5.80;;;21.10;58.70;;;;;;5005573;28;20218;-75
2023/06/16 00:49:33;;;;;;;7.87;5.10;;;21.10;58.80;;;;;;5004280;28;20232;-75
2023/06/16 00:52:01;;;;;;;5.87;5.37;;;21.00;58.80;;;;;;5007606;28;20241;-74
2023/06/16 00:54:27;;;;;;;5.10;4.70;;;21.00;58.80;;;;;;5001617;28;20444;-74
2023/06/16 00:56:54;;;;;;;5.50;5.00;;;21.00;58.80;;;;;;5000244;28;20484;-75
2023/06/16 00:59:25;;;;;;;8.70;5.53;;;21.00;58.90;;;;;;5002617;28;20464;-74
2023/06/16 01:01:52;;;;;;;5.00;4.50;;;20.90;59.00;;;;;;4990581;28;20532;-75
2023/06/16 01:04:20;;;;;;;5.47;4.97;;;20.80;59.10;;;;;;5005516;28;20876;-74
2023/06/16 01:06:59;;;;;;;6.20;5.60;;;20.80;59.10;;;;;;5006687;28;20453;-75
2023/06/16 01:09:43;;;;;;;6.97;5.60;;;20.80;59.00;;;;;;5006456;28;20452;-74
2023/06/16 01:12:23;;;;;;;7.10;5.30;;;20.80;59.00;;;;;;5002692;28;20467;-74
2023/06/16 01:15:04;;;;;;;5.40;4.87;;;20.80;59.20;;;;;;4990255;28;20448;-71
2023/06/16 01:17:33;;;;;;;5.67;5.17;;;20.70;59.20;;;;;;4981393;28;20453;-75
2023/06/16 01:20:17;;;;;;;5.23;4.83;;;20.60;59.20;;;;;;4991071;28;21020;-75
2023/06/16 01:22:50;;;;;;;5.53;4.90;;;20.60;59.40;;;;;;5004738;28;20476;-73
2023/06/16 01:25:22;;;;;;;4.83;4.37;;;20.40;59.40;;;;;;4988600;28;20488;-74
2023/06/16 01:27:51;;;;;;;5.03;4.63;;;20.20;59.60;;;;;;5011547;28;20467;-73
2023/06/16 01:30:21;;;;;;;7.47;5.20;;;20.20;59.80;;;;;;5003449;28;20477;-75
2023/06/16 01:32:51;;;;;;;5.57;5.00;;;20.20;59.90;;;;;;5008178;28;20457;-74
2023/06/16 01:35:18;;;;;;;6.47;5.20;;;20.30;59.80;;;;;;4994067;28;20566;-72
2023/06/16 01:37:44;;;;;;;5.90;5.40;;;20.40;59.60;;;;;;5008426;28;20455;-74
2023/06/16 01:40:12;;;;;;;5.93;5.00;;;20.40;59.60;;;;;;4988418;28;20557;-73
2023/06/16 01:42:38;;;;;;;7.00;5.10;;;20.50;59.50;;;;;;5011254;28;20445;-74
2023/06/16 01:45:05;;;;;;;5.23;4.73;;;20.50;59.60;;;;;;4992801;28;20560;-73
2023/06/16 01:47:32;;;;;;;5.80;4.70;;;20.50;59.50;;;;;;4989495;28;20455;-74
2023/06/16 01:49:57;;;;;;;5.10;4.60;;;20.40;59.50;;;;;;5009024;28;20876;-74
2023/06/16 01:52:23;;;;;;;5.80;4.90;;;20.40;59.40;;;;;;4993336;28;20445;-74
2023/06/16 01:54:49;;;;;;;5.90;5.20;;;20.40;59.60;;;;;;5004660;28;20624;-74
2023/06/16 01:57:14;;;;;;;6.13;4.60;;;20.40;59.50;;;;;;4998501;28;20604;-74
2023/06/16 01:59:40;;;;;;;5.60;5.07;;;20.30;59.50;;;;;;5006611;28;20226;-73
2023/06/16 02:02:14;;;;;;;8.80;5.00;;;20.30;59.60;;;;;;5008478;28;20244;-73
2023/06/16 02:04:44;;;;;;;5.80;5.30;;;20.30;59.60;;;;;;5007926;28;20229;-75
2023/06/16 02:07:16;;;;;;;5.70;5.17;;;20.20;59.60;;;;;;5007307;28;20805;-75
2023/06/16 02:09:46;;;;;;;8.47;4.70;;;20.20;59.60;;;;;;5003091;28;20460;-73
2023/06/16 02:12:12;;;;;;;5.60;4.03;;;20.20;59.50;;;;;;4991864;28;20468;-75
2023/06/16 02:14:39;;;;;;;9.00;4.80;;;20.20;59.50;;;;;;5004946;28;21042;-74
2023/06/16 02:17:07;;;;;;;5.00;4.60;;;20.10;59.50;;;;;;5008383;28;20453;-74
2023/06/16 02:19:33;;;;;;;4.87;4.40;;;20.10;59.50;;;;;;4992608;28;20695;-75
2023/06/16 02:22:00;;;;;;;5.53;4.73;;;20.10;59.50;;;;;;5009845;28;20463;-73
2023/06/16 02:24:26;;;;;;;6.70;4.23;;;20.00;59.60;;;;;;5008182;28;20540;-74
2023/06/16 02:26:52;;;;;;;5.30;4.87;;;20.00;59.50;;;;;;5001300;28;20461;-75
2023/06/16 02:29:18;;;;;;;5.33;4.80;;;20.00;60.00;;;;;;5012987;28;20449;-73
2023/06/16 02:31:47;;;;;;;5.10;4.70;;;20.00;59.50;;;;;;4993490;28;20245;-74
2023/06/16 02:34:13;;;;;;;5.23;4.73;;;19.80;59.60;;;;;;5007812;28;20469;-74
2023/06/16 02:36:39;;;;;;;5.60;5.00;;;19.80;59.70;;;;;;4995848;28;20480;-73
2023/06/16 02:39:04;;;;;;;5.67;5.07;;;19.80;59.60;;;;;;4999034;28;20504;-73
2023/06/16 02:41:31;;;;;;;4.83;4.20;;;19.90;59.70;;;;;;4996174;28;20638;-74
2023/06/16 02:43:57;;;;;;;5.60;4.80;;;19.80;59.60;;;;;;4994169;28;20230;-74
2023/06/16 02:46:23;;;;;;;6.40;4.73;;;19.80;59.70;;;;;;5008697;28;20503;-74
2023/06/16 02:48:48;;;;;;;4.73;4.33;;;19.80;59.50;;;;;;4985728;28;20218;-75
2023/06/16 02:51:14;;;;;;;5.27;4.77;;;19.80;59.60;;;;;;5009171;28;20243;-73
2023/06/16 02:53:40;;;;;;;4.87;4.50;;;19.70;59.70;;;;;;5009837;28;20731;-74
2023/06/16 02:56:07;;;;;;;4.90;4.40;;;19.70;59.90;;;;;;5007921;28;20226;-75
2023/06/16 02:58:33;;;;;;;6.40;5.80;;;19.60;59.90;;;;;;5008346;28;20593;-73
2023/06/16 03:00:59;;;;;;;5.80;5.20;;;19.60;60.00;;;;;;4984347;28;20459;-74
2023/06/16 03:03:48;;;;;;;5.90;4.10;;;19.50;60.20;;;;;;5008179;28;20238;-75
2023/06/16 03:06:29;;;;;;;5.10;4.60;;;19.50;60.20;;;;;;5003802;28;20810;-74
2023/06/16 03:08:56;;;;;;;5.90;4.80;;;19.40;59.90;;;;;;4994203;28;20804;-74
2023/06/16 03:11:22;;;;;;;5.10;4.60;;;19.40;60.40;;;;;;5018234;28;20457;-75
2023/06/16 03:13:53;;;;;;;5.13;4.50;;;19.40;60.60;;;;;;4989997;28;20453;-73
2023/06/16 03:16:21;;;;;;;5.90;5.10;;;19.30;60.40;;;;;;4996324;28;20480;-74
2023/06/16 03:18:47;;;;;;;5.10;4.63;;;19.30;60.50;;;;;;5007841;28;20499;-73
2023/06/16 03:21:16;;;;;;;5.77;4.60;;;19.30;60.70;;;;;;5007931;28;20488;-72
2023/06/16 03:23:45;;;;;;;5.27;4.70;;;19.30;60.80;;;;;;5026879;28;20263;-72
2023/06/16 03:26:12;;;;;;;5.40;4.87;;;19.20;60.80;;;;;;5020960;28;20473;-75
2023/06/16 03:28:58;;;;;;;5.20;4.53;;;19.10;61.10;;;;;;5012472;28;20523;-73
2023/06/16 03:31:25;;;;;;;4.93;4.47;;;19.00;61.30;;;;;;5006524;28;20457;-74
2023/06/16 03:33:51;;;;;;;4.90;4.40;;;19.00;61.20;;;;;;5006233;28;20460;-74
2023/06/16 03:36:20;;;;;;;7.10;5.20;;;18.90;61.10;;;;;;4990876;28;20452;-74
2023/06/16 03:38:46;;;;;;;5.93;5.30;;;18.80;61.70;;;;;;5020148;28;20225;-73
2023/06/16 03:41:11;;;;;;;5.50;5.00;;;18.80;62.20;;;;;;4999278;28;20470;-74
2023/06/16 03:43:37;;;;;;;7.00;4.80;;;18.90;61.70;;;;;;5041787;28;20312;-74
2023/06/16 03:46:03;;;;;;;5.03;4.37;;;19.00;61.50;;;;;;4990211;28;20525;-74
2023/06/16 03:48:30;;;;;;;5.73;4.73;;;18.80;61.20;;;;;;5009009;28;20213;-74
2023/06/16 03:51:00;;;;;;;5.20;4.73;;;18.80;61.90;;;;;;5016204;28;20463;-73
2023/06/16 03:53:27;;;;;;;5.10;4.70;;;18.80;61.90;;;;;;4995275;28;20463;-74
2023/06/16 03:55:55;;;;;;;8.33;4.80;;;18.80;61.80;;;;;;5017414;28;20809;-74
2023/06/16 03:58:23;;;;;;;5.10;4.60;;;18.80;61.60;;;;;;5005592;28;21025;-74
2023/06/16 04:00:50;;;;;;;5.87;4.77;;;18.80;61.40;;;;;;4996296;28;20465;-74
2023/06/16 04:03:17;;;;;;;5.50;4.57;;;18.80;61.00;;;;;;4991482;28;21011;-74
2023/06/16 04:05:43;;;;;;;5.37;4.70;;;18.80;61.30;;;;;;5017234;28;20475;-74
2023/06/16 04:08:09;;;;;;;5.20;4.73;;;18.80;61.60;;;;;;5006302;28;20719;-74
2023/06/16 04:10:35;;;;;;;6.63;5.40;;;18.90;62.10;;;;;;4989491;28;20716;-73
2023/06/16 04:13:01;;;;;;;5.60;4.97;;;18.90;61.60;;;;;;5006925;28;20519;-74
2023/06/16 04:15:31;;;;;;;5.00;4.60;;;18.80;61.10;;;;;;4982620;28;20723;-74
2023/06/16 04:17:57;;;;;;;5.30;4.77;;;18.90;61.90;;;;;;4987332;28;20464;-74
2023/06/16 04:20:23;;;;;;;6.00;5.00;;;18.80;62.00;;;;;;4999119;28;20562;-72
2023/06/16 04:22:49;;;;;;;6.23;5.30;;;18.70;62.30;;;;;;5003501;28;20767;-73
2023/06/16 04:25:14;;;;;;;7.07;5.00;;;18.70;62.60;;;;;;5005451;28;20230;-74
2023/06/16 04:27:43;;;;;;;5.67;5.17;;;18.60;62.90;;;;;;4991772;28;20226;-74
2023/06/16 04:30:11;;;;;;;8.60;5.40;;;18.70;62.70;;;;;;4994033;28;20465;-74
2023/06/16 04:32:36;;;;;;;5.73;5.10;;;18.70;62.90;;;;;;5006254;28;20548;-74
2023/06/16 04:35:06;;;;;;;5.00;4.43;;;18.70;63.20;;;;;;4987293;28;20982;-72
2023/06/16 04:37:33;;;;;;;6.80;5.00;;;18.70;63.20;;;;;;5006980;28;20441;-74
2023/06/16 04:40:00;;;;;;;5.70;5.20;;;18.60;63.20;;;;;;4990163;28;20540;-73
2023/06/16 04:42:28;;;;;;;7.17;4.87;;;18.70;63.20;;;;;;4982723;28;20461;-74
2023/06/16 04:44:54;;;;;;;7.43;5.83;;;18.80;63.20;;;;;;4991076;28;20476;-74
2023/06/16 04:47:21;;;;;;;6.90;5.10;;;18.80;63.40;;;;;;5003511;28;20493;-74
2023/06/16 04:49:48;;;;;;;5.27;4.60;;;18.80;63.70;;;;;;5005619;28;20468;-74
2023/06/16 04:52:14;;;;;;;5.97;5.23;;;18.80;63.80;;;;;;4985912;28;20457;-74
2023/06/16 04:54:40;;;;;;;5.80;5.20;;;18.90;64.30;;;;;;4979572;28;20225;-74
2023/06/16 04:57:08;;;;;;;5.70;4.87;;;18.90;64.20;;;;;;5007813;28;20463;-71
2023/06/16 04:59:35;;;;;;;6.30;5.27;;;18.90;64.00;;;;;;4987581;28;20465;-74
2023/06/16 05:02:00;;;;;;;5.80;5.13;;;18.90;64.00;;;;;;4989997;28;20302;-74
2023/06/16 05:04:27;;;;;;;6.53;5.80;;;18.90;63.90;;;;;;5007389;28;20985;-74
2023/06/16 05:06:53;;;;;;;5.27;4.67;;;18.90;64.30;;;;;;5008190;28;20477;-74
2023/06/16 05:09:20;;;;;;;6.90;5.33;;;18.90;64.10;;;;;;4988801;28;20237;-74
2023/06/16 05:11:46;;;;;;;6.47;5.00;;;18.90;64.30;;;;;;4990826;28;20218;-74
2023/06/16 05:14:12;;;;;;;8.83;4.70;;;18.90;64.40;;;;;;5005364;28;20523;-74
2023/06/16 05:16:39;;;;;;;4.53;4.13;;;19.00;64.50;;;;;;5005849;28;20473;-74
2023/06/16 05:19:05;;;;;;;6.37;5.20;;;19.10;64.10;;;;;;5002022;28;20540;-73
2023/06/16 05:21:35;;;;;;;6.23;5.40;;;19.10;64.30;;;;;;4979755;28;20218;-74
2023/06/16 05:24:02;;;;;;;7.30;5.27;;;19.10;64.20;;;;;;4990972;28;20856;-74
2023/06/16 05:26:27;;;;;;;7.63;5.53;;;19.20;64.20;;;;;;4988494;28;20452;-74
2023/06/16 05:28:53;;;;;;;5.90;5.27;;;19.20;65.30;;;;;;4991907;28;20468;-74
2023/06/16 05:31:20;;;;;;;7.50;5.40;;;19.10;65.00;;;;;;5005544;28;20217;-72
2023/06/16 05:33:45;;;;;;;6.90;5.07;;;19.10;65.00;;;;;;5004069;28;20523;-73
2023/06/16 05:36:12;;;;;;;6.43;5.33;;;19.10;64.80;;;;;;5005101;28;20215;-74
2023/06/16 05:38:38;;;;;;;5.73;5.10;;;19.10;64.70;;;;;;5004004;28;20530;-75
2023/06/16 05:41:05;;;;;;;6.27;4.83;;;19.20;65.10;;;;;;5000007;28;20449;-72
2023/06/16 05:43:31;;;;;;;7.20;6.00;;;19.20;65.40;;;;;;4976713;28;20463;-74
2023/06/16 05:45:57;;;;;;;6.10;4.83;;;19.20;65.40;;;;;;4991656;28;20459;-74
2023/06/16 05:48:23;;;;;;;9.43;6.30;;;19.20;65.80;;;;;;4987998;28;20483;-75
2023/06/16 05:50:49;;;;;;;5.67;5.07;;;19.20;65.50;;;;;;5005586;28;20229;-74
2023/06/16 05:53:15;;;;;;;7.13;5.37;;;19.30;65.70;;;;;;4988791;28;21092;-74
2023/06/16 05:55:41;;;;;;;7.60;5.70;;;19.30;65.30;;;;;;5001911;28;20214;-73
2023/06/16 05:58:07;;;;;;;5.90;5.30;;;19.40;68.00;;;;;;5004327;28;20503;-74
2023/06/16 06:00:34;;;;;;;5.77;5.00;;;19.50;68.80;;;;;;4984996;28;20222;-72
2023/06/16 06:03:05;;;;;;;6.47;5.87;;;19.60;67.50;;;;;;4987566;28;20813;-73
2023/06/16 06:05:35;;;;;;;7.30;5.10;;;19.60;68.50;;;;;;5002299;28;20479;-73
2023/06/16 06:08:02;;;;;;;6.60;6.07;;;19.70;69.70;;;;;;5001900;28;20457;-74
2023/06/16 06:10:28;;;;;;;8.10;5.90;;;19.70;68.80;;;;;;5004335;28;20469;-74
2023/06/16 06:12:55;;;;;;;5.90;5.30;;;19.80;70.50;;;;;;4989223;28;20469;-74
2023/06/16 06:15:21;;;;;;;5.87;5.37;;;19.90;71.60;;;;;;4987644;28;20709;-73
2023/06/16 06:17:50;;;;;;;6.10;5.40;;;20.00;72.00;;;;;;4986071;28;21044;-73
2023/06/16 06:20:17;;;;;;;6.77;5.57;;;20.10;72.00;;;;;;4986536;28;20461;-74
2023/06/16 06:22:43;;;;;;;7.60;5.70;;;20.10;72.80;;;;;;4985674;28;20514;-72
2023/06/16 06:25:10;;;;;;;6.57;5.40;;;20.20;73.10;;;;;;5001979;28;20232;-73
2023/06/16 06:27:35;;;;;;;6.03;4.90;;;20.30;73.40;;;;;;5002381;28;20461;-74
2023/06/16 06:30:01;;;;;;;19.00;5.10;;;20.30;74.10;;;;;;4989370;28;20471;-74
2023/06/16 06:32:28;;;;;;;6.77;4.90;;;20.40;73.00;;;;;;5002617;28;20600;-73
2023/06/16 06:34:54;;;;;;;6.80;5.37;;;20.50;74.40;;;;;;4995816;28;20476;-73
2023/06/16 06:37:20;;;;;;;5.73;5.23;;;20.60;74.70;;;;;;5001559;28;20214;-73
2023/06/16 06:39:47;;;;;;;6.00;5.40;;;20.60;73.90;;;;;;5003075;28;20473;-72
2023/06/16 06:42:15;;;;;;;8.43;7.17;;;20.70;73.70;;;;;;5000931;28;20465;-72
2023/06/16 06:44:49;;;;;;;5.73;5.23;;;20.80;73.40;;;;;;4981682;28;20232;-74
2023/06/16 06:47:16;;;;;;;7.73;5.87;;;20.80;73.60;;;;;;4989171;28;20845;-73
2023/06/16 06:49:44;;;;;;;6.10;5.50;;;20.80;73.30;;;;;;4985859;28;20247;-74
2023/06/16 06:52:10;;;;;;;7.17;5.30;;;20.90;74.30;;;;;;5004031;28;20885;-74
2023/06/16 06:54:36;;;;;;;9.97;5.50;;;21.10;74.80;;;;;;5006214;28;20251;-74
2023/06/16 06:57:01;;;;;;;7.50;5.23;;;21.20;74.40;;;;;;4990511;28;20221;-72
2023/06/16 06:59:27;;;;;;;6.33;5.73;;;21.30;74.70;;;;;;4989828;28;20226;-74
2023/06/16 07:01:52;;;;;;;6.23;5.60;;;21.40;74.20;;;;;;5004653;28;20225;-74
2023/06/16 07:04:18;;;;;;;5.80;5.30;;;21.30;73.80;;;;;;5005525;28;20597;-75
2023/06/16 07:06:44;;;;;;;5.83;5.20;;;21.50;73.80;;;;;;5007039;28;20216;-73
2023/06/16 07:09:10;;;;;;;5.57;5.03;;;21.50;73.50;;;;;;4983832;28;20217;-74
2023/06/16 07:11:35;;;;;;;5.30;4.80;;;21.70;73.00;;;;;;5006371;28;20287;-74
2023/06/16 07:14:01;;;;;;;5.50;5.10;;;21.80;73.30;;;;;;4990026;28;20223;-75
2023/06/16 07:16:28;;;;;;;6.67;5.53;;;21.70;72.40;;;;;;5004262;28;20213;-74
2023/06/16 07:18:54;;;;;;;6.47;5.60;;;21.90;73.10;;;;;;4999587;28;20461;-72
2023/06/16 07:21:20;;;;;;;5.60;5.10;;;22.10;72.80;;;;;;5003638;28;20456;-73
2023/06/16 07:23:45;;;;;;;6.50;5.90;;;22.20;72.40;;;;;;5005586;28;20223;-74
2023/06/16 07:26:11;;;;;;;6.47;5.27;;;21.90;71.60;;;;;;5003029;28;20221;-74
2023/06/16 07:28:37;;;;;;;6.20;5.13;;;22.00;72.00;;;;;;4985107;28;20224;-74
2023/06/16 07:31:03;;;;;;;5.40;4.80;;;22.20;70.60;;;;;;5002269;28;20689;-74
2023/06/16 07:33:29;;;;;;;5.97;5.17;;;22.30;68.20;;;;;;5000686;28;20463;-74
2023/06/16 07:35:54;;;;;;;4.60;4.20;;;22.40;66.60;;;;;;5002279;28;20223;-73
2023/06/16 07:38:20;;;;;;;7.47;5.20;;;22.40;64.40;;;;;;4986762;28;20297;-73
2023/06/16 07:40:46;;;;;;;6.73;3.83;;;22.30;64.60;;;;;;5006220;28;20297;-73
2023/06/16 07:43:11;;;;;;;4.80;4.30;;;22.20;64.60;;;;;;4998900;28;20268;-74
2023/06/16 07:45:37;;;;;;;6.47;5.03;;;22.30;64.90;;;;;;4986999;28;20814;-74
2023/06/16 07:48:04;;;;;;;4.83;4.37;;;22.40;64.90;;;;;;5002635;28;20220;-74
2023/06/16 07:50:30;;;;;;;5.10;4.60;;;22.30;63.90;;;;;;5004831;28;20308;-74
2023/06/16 07:52:56;;;;;;;5.80;4.70;;;22.40;63.40;;;;;;4999319;28;20464;-75
2023/06/16 07:55:22;;;;;;;4.40;4.03;;;22.60;64.40;;;;;;4987635;28;20591;-73
2023/06/16 07:57:47;;;;;;;4.80;4.37;;;22.80;63.10;;;;;;4985888;28;20241;-74
2023/06/16 08:00:18;;;;;;;5.00;4.50;;;22.80;63.10;;;;;;4999831;28;20276;-75
2023/06/16 08:02:44;;;;;;;5.40;4.50;;;23.10;64.00;;;;;;5005676;28;20211;-75
2023/06/16 08:05:16;;;;;;;4.80;4.40;;;23.10;62.70;;;;;;4988693;28;20502;-74
2023/06/16 08:07:42;;;;;;;4.83;4.43;;;23.00;62.80;;;;;;4981615;28;20230;-75
2023/06/16 08:10:08;;;;;;;4.73;4.33;;;23.10;63.60;;;;;;5004043;28;20857;-74
2023/06/16 08:12:34;;;;;;;5.87;4.80;;;23.40;63.40;;;;;;4996832;28;20495;-74
2023/06/16 08:15:00;;;;;;;5.33;4.83;;;23.70;62.60;;;;;;4999932;28;20503;-74
2023/06/16 08:17:25;;;;;;;6.83;4.70;;;23.80;62.20;;;;;;4999823;28;20224;-74
2023/06/16 08:19:53;;;;;;;5.13;4.70;;;23.90;61.60;;;;;;4998861;28;20590;-75
2023/06/16 08:22:19;;;;;;;5.60;5.10;;;23.80;61.70;;;;;;4997219;28;20263;-74
2023/06/16 08:24:45;;;;;;;5.90;4.30;;;23.70;61.90;;;;;;5000899;28;20495;-75
2023/06/16 08:27:11;;;;;;;4.53;4.10;;;23.60;60.80;;;;;;4983239;28;20515;-75
2023/06/16 08:29:39;;;;;;;5.67;5.10;;;23.70;61.80;;;;;;4983265;28;20239;-74
2023/06/16 08:32:06;;;;;;;7.10;4.50;;;23.90;61.40;;;;;;4999791;28;20556;-75
2023/06/16 08:34:33;;;;;;;5.17;4.67;;;23.90;61.10;;;;;;4999235;28;20513;-74
2023/06/16 08:37:00;;;;;;;5.63;3.93;;;24.10;61.00;;;;;;4999800;28;20841;-75
2023/06/16 08:39:26;;;;;;;5.60;4.77;;;24.10;60.20;;;;;;4983998;28;20454;-74
2023/06/16 08:41:53;;;;;;;6.03;4.67;;;24.40;60.40;;;;;;4996283;28;20829;-74
2023/06/16 08:44:21;;;;;;;5.13;4.60;;;24.30;59.80;;;;;;5000053;28;20218;-75
2023/06/16 08:46:47;;;;;;;5.77;5.27;;;24.40;60.00;;;;;;4998573;28;20499;-73
2023/06/16 08:49:15;;;;;;;5.80;4.70;;;24.40;59.90;;;;;;5001036;28;20460;-75
2023/06/16 08:51:47;;;;;;;5.80;5.30;;;24.40;59.90;;;;;;4999870;28;20579;-75
2023/06/16 08:54:13;;;;;;;7.93;5.20;;;24.60;60.30;;;;;;4996911;28;20463;-75
2023/06/16 08:56:42;;;;;;;5.80;5.23;;;24.90;59.90;;;;;;5003960;28;20515;-74
2023/06/16 08:59:08;;;;;;;5.50;5.00;;;24.70;59.50;;;;;;4991583;28;20457;-74
2023/06/16 09:01:34;;;;;;;8.13;5.23;;;24.80;59.80;;;;;;4999815;28;20464;-75
2023/06/16 09:04:00;;;;;;;4.90;4.47;;;24.70;59.80;;;;;;4995704;28;21045;-74
2023/06/16 09:06:26;;;;;;;7.07;5.10;;;24.80;59.70;;;;;;4997048;28;20812;-75
2023/06/16 09:08:54;;;;;;;5.20;4.70;;;25.10;59.90;;;;;;4998862;28;20548;-74
2023/06/16 09:11:26;;;;;;;4.73;4.33;;;25.00;59.00;;;;;;5002495;28;20217;-75
2023/06/16 09:13:53;;;;;;;5.13;4.67;;;24.70;58.60;;;;;;4979910;28;20516;-75
2023/06/16 09:16:22;;;;;;;5.27;4.77;;;25.00;59.00;;;;;;5000595;28;21098;-74
2023/06/16 09:18:49;;;;;;;6.07;5.20;;;25.40;58.90;;;;;;4986543;28;21025;-75
2023/06/16 09:21:22;;;;;;;5.17;4.73;;;25.50;58.60;;;;;;5000946;28;20919;-75
2023/06/16 09:23:56;;;;;;;6.00;5.50;;;25.40;58.60;;;;;;4999529;28;21041;-75
2023/06/16 09:26:24;;;;;;;5.20;4.70;;;25.50;58.90;;;;;;4985520;28;20494;-75
2023/06/16 09:28:51;;;;;;;4.63;4.23;;;25.50;58.50;;;;;;5001438;28;20548;-75
2023/06/16 09:31:17;;;;;;;6.33;4.80;;;25.60;58.80;;;;;;4998888;28;20465;-75
2023/06/16 09:33:43;;;;;;;5.73;5.23;;;25.70;58.40;;;;;;4999790;28;20475;-75
2023/06/16 09:36:09;;;;;;;6.17;5.60;;;25.60;58.10;;;;;;5000342;28;20987;-75
2023/06/16 09:38:36;;;;;;;6.33;5.43;;;25.50;58.40;;;;;;4998597;28;20224;-75
2023/06/16 09:41:11;;;;;;;8.90;4.80;;;25.90;58.60;;;;;;4975111;28;20489;-74
2023/06/16 09:43:41;;;;;;;5.80;5.20;;;26.40;57.60;;;;;;4998647;28;20463;-75
2023/06/16 09:46:10;;;;;;;7.07;6.40;;;26.50;58.20;;;;;;4987525;28;20461;-75
2023/06/16 09:48:45;;;;;;;5.53;5.03;;;26.40;58.10;;;;;;5001458;28;20445;-75
2023/06/16 09:51:11;;;;;;;6.20;5.60;;;26.50;58.10;;;;;;5000099;28;20492;-75
2023/06/16 09:53:38;;;;;;;6.37;5.73;;;26.50;58.00;;;;;;4996320;28;20491;-75
2023/06/16 09:56:05;;;;;;;7.67;6.47;;;26.70;58.10;;;;;;4977528;28;20210;-75
2023/06/16 09:58:30;;;;;;;8.03;6.57;;;26.50;57.40;;;;;;4998331;28;20491;-75
2023/06/16 10:00:58;;;;;;;12.63;6.50;;;26.40;58.00;;;;;;4982993;28;20313;-75
2023/06/16 10:03:24;;;;;;;5.57;5.07;;;26.50;57.70;;;;;;4999923;28;20224;-75
2023/06/16 10:05:54;;;;;;;7.67;5.90;;;26.40;57.20;;;;;;4999407;28;20483;-75
2023/06/16 10:08:21;;;;;;;5.73;5.23;;;26.40;57.60;;;;;;4994295;28;20552;-73
2023/06/16 10:10:51;;;;;;;9.43;5.10;;;26.20;56.90;;;;;;5003681;28;20474;-73
2023/06/16 10:13:20;;;;;;;5.63;5.13;;;26.20;57.10;;;;;;5002401;28;20471;-74
2023/06/16 10:15:55;;;;;;;6.47;5.77;;;26.50;56.80;;;;;;5004723;28;20555;-74
2023/06/16 10:18:25;;;;;;;6.77;5.97;;;27.00;56.50;;;;;;4994735;28;20271;-75
2023/06/16 10:20:51;;;;;;;5.90;5.40;;;27.00;57.30;;;;;;5005422;28;20680;-74
2023/06/16 10:23:17;;;;;;;6.27;4.87;;;27.40;57.00;;;;;;4983651;28;20809;-74
2023/06/16 10:25:43;;;;;;;5.43;5.03;;;27.50;56.70;;;;;;4984060;28;20229;-75
2023/06/16 10:28:14;;;;;;;8.20;5.63;;;27.10;56.60;;;;;;5002865;28;20229;-74
2023/06/16 10:30:41;;;;;;;6.22;5.63;;;26.60;56.70;;;;;;4986568;28;20224;-74
2023/06/16 10:33:25;;;;;;;7.80;4.85;;;27.00;57.10;;;;;;5008984;28;20222;-74
2023/06/16 10:35:56;;;;;;;6.07;5.00;;;27.40;56.70;;;;;;5003813;28;20216;-74
2023/06/16 10:38:35;;;;;;;6.03;5.43;;;27.70;55.70;;;;;;5004442;28;20229;-75
2023/06/16 10:41:02;;;;;;;5.73;5.23;;;27.60;55.60;;;;;;4987629;28;20225;-74
2023/06/16 10:43:28;;;;;;;5.30;4.63;;;27.10;55.70;;;;;;4999729;28;20221;-74
2023/06/16 10:46:13;;;;;;;5.37;4.87;;;27.30;55.60;;;;;;5002896;28;20229;-74
2023/06/16 10:49:11;;;;;;;5.25;4.75;;;27.30;55.30;;;;;;5004024;28;20221;-74
2023/06/16 10:51:48;;;;;;;4.73;4.43;;;27.50;55.40;;;;;;4993233;28;20276;-74
2023/06/16 10:54:36;;;;;;;6.20;4.73;;;27.20;55.70;;;;;;5005478;28;20622;-75
2023/06/16 10:57:02;;;;;;;5.47;4.95;;;27.80;55.90;;;;;;4987474;28;20491;-74
2023/06/16 10:59:28;;;;;;;5.75;5.18;;;27.60;55.40;;;;;;5000895;28;20245;-74
2023/06/16 11:01:58;;;;;;;5.68;5.20;;;27.70;55.20;;;;;;5006551;28;20217;-74
2023/06/16 11:04:24;;;;;;;5.30;4.80;;;27.40;55.10;;;;;;4987478;28;20257;-74
2023/06/16 11:07:07;;;;;;;5.45;4.95;;;27.40;55.10;;;;;;5007592;28;20237;-74
2023/06/16 11:09:35;;;;;;;5.13;4.72;;;27.10;54.80;;;;;;5006199;28;20691;-72
2023/06/16 11:12:02;;;;;;;5.28;4.18;;;27.50;55.00;;;;;;4990222;28;20241;-74
2023/06/16 11:14:28;;;;;;;5.30;4.55;;;28.00;55.20;;;;;;5003402;28;20224;-74
2023/06/16 11:16:55;;;;;;;6.57;5.03;;;28.10;55.00;;;;;;5000904;28;20214;-74
2023/06/16 11:19:21;;;;;;;6.70;5.00;;;28.50;54.80;;;;;;5005004;28;20271;-75
2023/06/16 11:21:47;;;;;;;6.28;4.93;;;28.30;54.60;;;;;;5006343;28;20225;-74
2023/06/16 11:24:13;;;;;;;5.00;4.50;;;28.50;54.10;;;;;;5002431;28;20590;-75
2023/06/16 11:26:39;;;;;;;4.70;4.30;;;27.90;54.30;;;;;;5003443;28;20220;-74
2023/06/16 11:29:06;;;;;;;5.50;5.00;;;27.30;54.70;;;;;;5006946;28;20580;-75
2023/06/16 11:31:35;;;;;;;5.57;4.88;;;27.50;54.70;;;;;;5004289;28;20213;-74
2023/06/16 11:34:02;;;;;;;4.82;4.40;;;28.20;54.50;;;;;;5001685;28;20209;-74
2023/06/16 11:36:28;;;;;;;5.30;4.70;;;28.60;54.20;;;;;;5002795;28;20209;-75
2023/06/16 11:39:00;;;;;;;6.05;5.22;;;28.80;54.00;;;;;;5004598;28;20649;-74
2023/06/16 11:41:28;;;;;;;6.05;5.45;;;29.10;53.80;;;;;;5003961;28;20718;-74
2023/06/16 11:43:54;;;;;;;6.35;4.93;;;29.00;53.60;;;;;;4979948;28;20625;-73
2023/06/16 11:46:26;;;;;;;5.18;4.57;;;28.30;53.50;;;;;;5004191;28;20702;-74
2023/06/16 11:48:52;;;;;;;4.78;4.38;;;27.90;53.80;;;;;;5004654;28;20225;-74
2023/06/16 11:51:19;;;;;;;5.45;5.00;;;27.80;54.10;;;;;;5004070;28;20217;-75
2023/06/16 11:53:45;;;;;;;5.30;4.90;;;28.20;54.30;;;;;;5005317;28;20244;-74
2023/06/16 11:56:16;;;;;;;5.25;4.85;;;28.90;54.30;;;;;;4987984;28;20218;-75
2023/06/16 11:58:44;;;;;;;5.40;4.90;;;29.20;53.70;;;;;;5003985;28;20213;-74
2023/06/16 12:01:14;;;;;;;5.38;4.90;;;29.60;53.40;;;;;;5003158;28;20218;-75
2023/06/16 12:03:40;;;;;;;4.95;4.55;;;29.50;52.70;;;;;;5000050;28;20233;-73
2023/06/16 12:06:07;;;;;;;4.97;4.47;;;29.70;52.20;;;;;;4989768;28;20249;-75
2023/06/16 12:08:41;;;;;;;5.43;4.63;;;29.80;52.30;;;;;;5005039;28;20230;-75
2023/06/16 12:11:09;;;;;;;4.88;4.47;;;30.00;51.50;;;;;;4981430;28;20291;-75
2023/06/16 12:13:37;;;;;;;5.85;4.47;;;30.10;51.40;;;;;;5004266;28;20234;-75
2023/06/16 12:16:04;;;;;;;5.10;4.63;;;30.10;51.50;;;;;;5005040;28;20220;-75
2023/06/16 12:18:30;;;;;;;4.97;4.55;;;29.70;51.40;;;;;;4986534;28;20216;-74
2023/06/16 12:20:56;;;;;;;4.82;4.43;;;29.10;51.60;;;;;;5003219;28;20233;-75
2023/06/16 12:23:22;;;;;;;6.60;4.65;;;28.90;52.00;;;;;;4987450;28;20229;-75
2023/06/16 12:25:49;;;;;;;6.00;5.57;;;29.00;51.80;;;;;;5004896;28;20279;-74
2023/06/16 12:28:18;;;;;;;5.28;4.70;;;28.70;52.20;;;;;;4987311;28;20297;-74
2023/06/16 12:30:44;;;;;;;5.20;4.78;;;29.10;51.90;;;;;;4983395;28;20228;-75
2023/06/16 12:33:12;;;;;;;4.65;4.25;;;28.60;51.80;;;;;;5002084;28;20214;-73
2023/06/16 12:35:41;;;;;;;5.05;4.65;;;28.60;52.10;;;;;;5000117;28;20313;-75
2023/06/16 12:38:07;;;;;;;4.78;4.38;;;28.90;52.30;;;;;;4993706;28;20221;-74
2023/06/16 12:40:33;;;;;;;5.10;4.70;;;28.80;51.60;;;;;;5004499;28;21808;-74
2023/06/16 12:43:35;;;;;;;5.25;4.78;;;29.40;51.50;;;;;;5006054;28;20242;-75
2023/06/16 12:46:01;;;;;;;4.40;3.97;;;29.40;51.10;;;;;;4926872;29;20240;-73
2023/06/16 12:48:29;;;;;;;5.20;4.70;;;29.40;50.40;;;;;;4985959;28;20216;-75